Terminal Aerodrome Forecast
Issued by NWS Northern Indiana

Home | Current Version | Previous Version | Text Only | Print | Product List | Glossary On
Versions: 1 2 3 4 5 6 7 8 9 10 11 12 13 14 15 16
904
FTUS43 KIWX 190120 AAA
TAFFWA
TAF AMD
KFWA 190120Z 1901/1924 25007KT P6SM FEW120 SCT200
     FM190600 23003KT P6SM VCSH BKN060
      TEMPO 1908/1912 5SM -SHRA BR BKN030
     FM191500 30007KT P6SM SCT040=

USA.gov is the U.S. government's official web portal to all federal, state and local government web resources and services.